createdAt,value
2022-12-25T00:00:25.178Z,10.20
2022-12-25T00:04:10.345Z,10.20
2022-12-25T00:07:52.418Z,10.20
2022-12-25T00:11:34.308Z,10.20
2022-12-25T00:15:16.957Z,10.20
2022-12-25T00:19:00.799Z,10.20
2022-12-25T00:22:42.496Z,10.20
2022-12-25T00:26:26.831Z,10.20
2022-12-25T00:30:09.841Z,10.20
2022-12-25T00:33:53.981Z,10.20
2022-12-25T00:37:35.968Z,10.20
2022-12-25T00:41:42.413Z,10.20
2022-12-25T00:45:24.604Z,10.20
2022-12-25T00:49:07.157Z,10.20
2022-12-25T00:52:57.011Z,10.20
2022-12-25T00:56:40.069Z,10.20
2022-12-25T01:00:24.053Z,10.30
2022-12-25T01:04:09.650Z,10.20
2022-12-25T01:07:56.396Z,10.20
2022-12-25T01:11:38.427Z,10.20
2022-12-25T01:15:24.518Z,10.20
2022-12-25T01:19:07.238Z,10.20
2022-12-25T01:22:49.315Z,10.20
2022-12-25T01:26:31.457Z,10.20
2022-12-25T01:30:13.366Z,10.20
2022-12-25T01:33:55.154Z,10.20
2022-12-25T01:37:36.885Z,10.20
2022-12-25T01:41:21.021Z,10.10
2022-12-25T01:45:27.030Z,10.20
2022-12-25T01:49:20.904Z,10.10
2022-12-25T01:53:03.116Z,10.20
2022-12-25T01:56:48.038Z,10.10
2022-12-25T02:00:29.899Z,10.10
2022-12-25T02:04:39.324Z,10.10
2022-12-25T02:08:23.193Z,10.10
2022-12-25T02:12:06.159Z,10.10
2022-12-25T02:16:09.602Z,10.10
2022-12-25T02:20:00.097Z,10.20
2022-12-25T02:24:01.883Z,10.20
2022-12-25T02:28:09.638Z,10.20
2022-12-25T02:32:07.768Z,10.20
2022-12-25T02:35:53.471Z,10.20
2022-12-25T02:40:00.566Z,10.20
2022-12-25T02:44:03.119Z,10.20
2022-12-25T02:48:03.794Z,10.20
2022-12-25T02:52:10.355Z,10.20
2022-12-25T02:56:12.821Z,10.20
2022-12-25T03:00:17.472Z,10.20
2022-12-25T03:04:23.475Z,10.30
2022-12-25T03:08:10.206Z,10.40
2022-12-25T03:12:01.975Z,10.30
2022-12-25T03:16:02.772Z,10.30
2022-12-25T03:20:03.395Z,10.40
2022-12-25T03:24:09.503Z,10.40
2022-12-25T03:27:54.220Z,10.40
2022-12-25T03:31:49.899Z,10.50
2022-12-25T03:35:46.448Z,10.50
2022-12-25T03:39:53.898Z,10.50
2022-12-25T03:43:57.052Z,10.50
2022-12-25T03:48:06.592Z,10.50
2022-12-25T03:52:08.721Z,10.50
2022-12-25T03:56:10.524Z,10.50
2022-12-25T04:00:11.091Z,10.50
2022-12-25T04:04:11.471Z,10.50
2022-12-25T04:08:11.958Z,10.50
2022-12-25T04:12:12.336Z,10.50
2022-12-25T04:16:13.710Z,10.50
2022-12-25T04:20:14.062Z,10.50
2022-12-25T04:24:14.481Z,10.50
2022-12-25T04:28:19.963Z,10.50
2022-12-25T04:32:20.256Z,10.50
2022-12-25T04:36:12.395Z,10.50
2022-12-25T04:39:54.144Z,10.50
2022-12-25T04:43:36.071Z,10.50
2022-12-25T04:47:17.822Z,10.50
2022-12-25T04:51:13.644Z,10.40
2022-12-25T04:54:55.348Z,10.40
2022-12-25T04:58:37.163Z,10.40
2022-12-25T05:02:19.049Z,10.40
2022-12-25T05:06:02.122Z,10.50
2022-12-25T05:09:43.850Z,10.50
2022-12-25T05:13:25.838Z,10.50
2022-12-25T05:17:08.083Z,10.40
2022-12-25T05:20:54.713Z,10.50
2022-12-25T05:24:36.435Z,10.50
2022-12-25T05:28:18.227Z,10.50
2022-12-25T05:31:59.989Z,10.50
2022-12-25T05:35:41.735Z,10.50
2022-12-25T05:39:24.103Z,10.50
2022-12-25T05:43:06.061Z,10.50
2022-12-25T05:46:56.808Z,10.50
2022-12-25T05:50:43.934Z,10.50
2022-12-25T05:54:25.713Z,10.60
2022-12-25T05:58:09.584Z,10.50
2022-12-25T06:01:51.330Z,10.50
2022-12-25T06:05:33.145Z,10.60
2022-12-25T06:09:14.871Z,10.60
2022-12-25T06:12:56.718Z,10.60
2022-12-25T06:16:38.726Z,10.70
2022-12-25T06:20:20.526Z,10.70
2022-12-25T06:24:02.437Z,10.80
2022-12-25T06:27:44.321Z,10.80
2022-12-25T06:31:26.159Z,10.80
2022-12-25T06:35:08.318Z,10.80
2022-12-25T06:38:50.612Z,10.80
2022-12-25T06:42:32.331Z,10.90
2022-12-25T06:46:14.076Z,10.90
2022-12-25T06:49:55.865Z,10.90
2022-12-25T06:53:40.343Z,10.90
2022-12-25T06:57:22.690Z,10.90
2022-12-25T07:01:15.193Z,10.90
2022-12-25T07:04:57.639Z,11.00
2022-12-25T07:08:39.348Z,10.90
2022-12-25T07:12:23.734Z,10.90
2022-12-25T07:16:07.663Z,10.90
2022-12-25T07:19:50.023Z,10.90
2022-12-25T07:23:31.767Z,10.90
2022-12-25T07:27:13.609Z,10.90
2022-12-25T07:30:55.684Z,10.90
2022-12-25T07:34:37.393Z,10.90
2022-12-25T07:38:19.123Z,11.00
2022-12-25T07:42:00.985Z,11.00
2022-12-25T07:45:43.011Z,10.90
2022-12-25T07:49:24.788Z,11.00
2022-12-25T07:53:06.494Z,11.00
2022-12-25T07:56:52.316Z,11.00
2022-12-25T08:00:34.091Z,11.00
2022-12-25T08:04:16.100Z,11.00
2022-12-25T08:07:58.348Z,11.00
2022-12-25T08:11:44.041Z,11.00
2022-12-25T08:15:25.744Z,11.00
2022-12-25T08:19:08.874Z,11.00
2022-12-25T08:22:50.585Z,11.00
2022-12-25T08:26:32.325Z,11.00
2022-12-25T08:30:14.158Z,11.00
2022-12-25T08:33:57.965Z,11.00
2022-12-25T08:37:39.726Z,11.00
2022-12-25T08:41:21.643Z,11.00
2022-12-25T08:45:03.611Z,11.00
2022-12-25T08:48:47.400Z,11.00
2022-12-25T08:52:29.561Z,11.00
2022-12-25T08:56:11.924Z,11.10
2022-12-25T08:59:53.620Z,11.10
2022-12-25T09:03:35.705Z,11.10
2022-12-25T09:07:17.466Z,11.10
2022-12-25T09:11:03.506Z,11.10
2022-12-25T09:14:45.305Z,11.10
2022-12-25T09:18:27.011Z,11.20
2022-12-25T09:22:08.749Z,11.20
2022-12-25T09:25:50.480Z,11.20
2022-12-25T09:29:32.194Z,11.20
2022-12-25T09:33:13.915Z,11.20
2022-12-25T09:36:55.658Z,11.20
2022-12-25T09:40:37.390Z,11.30
2022-12-25T09:44:35.914Z,11.20
2022-12-25T09:48:18.381Z,11.30
2022-12-25T09:52:12.549Z,11.30
2022-12-25T09:56:11.373Z,11.40
2022-12-25T09:59:55.435Z,11.40
2022-12-25T10:03:56.173Z,11.50
2022-12-25T10:07:48.166Z,11.50
2022-12-25T10:11:51.200Z,11.50
2022-12-25T10:15:40.400Z,11.50
2022-12-25T10:19:34.906Z,11.60
2022-12-25T10:23:22.750Z,11.60
2022-12-25T10:27:15.087Z,11.60
2022-12-25T10:31:01.643Z,11.60
2022-12-25T10:34:43.678Z,11.70
2022-12-25T10:38:25.545Z,11.70
2022-12-25T10:42:29.524Z,11.70
2022-12-25T10:46:13.583Z,11.70
2022-12-25T10:49:56.551Z,11.80
2022-12-25T10:53:43.283Z,11.80
2022-12-25T10:57:29.216Z,11.80
2022-12-25T11:01:12.509Z,11.90
2022-12-25T11:05:28.627Z,11.90
2022-12-25T11:09:16.538Z,11.90
2022-12-25T11:12:59.906Z,11.90
2022-12-25T11:16:41.888Z,12.00
2022-12-25T11:20:24.289Z,12.00
2022-12-25T11:24:17.628Z,12.00
2022-12-25T11:28:04.518Z,12.00
2022-12-25T11:31:47.343Z,12.00
2022-12-25T11:35:34.526Z,12.00
2022-12-25T11:39:28.125Z,12.00
2022-12-25T11:43:23.864Z,12.00
2022-12-25T11:47:45.770Z,12.00
2022-12-25T11:52:04.718Z,12.00
2022-12-25T11:55:55.176Z,12.10
2022-12-25T11:59:59.470Z,12.10
2022-12-25T12:03:43.609Z,12.10
2022-12-25T12:07:29.104Z,12.20
2022-12-25T12:11:22.259Z,12.20
2022-12-25T12:15:07.899Z,12.20
2022-12-25T12:18:50.853Z,12.20
2022-12-25T12:22:32.729Z,12.20
2022-12-25T12:26:23.910Z,12.20
2022-12-25T12:30:08.090Z,12.20
2022-12-25T12:33:54.436Z,12.20
2022-12-25T12:37:39.175Z,12.20
2022-12-25T12:41:23.132Z,12.20
2022-12-25T12:45:18.368Z,12.20
2022-12-25T12:49:11.417Z,12.20
2022-12-25T12:52:53.592Z,12.30
2022-12-25T12:56:35.305Z,12.30
2022-12-25T13:00:18.429Z,12.30
2022-12-25T13:04:40.151Z,12.30
2022-12-25T13:08:33.841Z,12.40
2022-12-25T13:12:17.086Z,12.40
2022-12-25T13:15:58.746Z,12.40
2022-12-25T13:19:43.554Z,12.40
2022-12-25T13:23:32.375Z,12.50
2022-12-25T13:27:25.651Z,12.40
2022-12-25T13:31:13.684Z,12.40
2022-12-25T13:34:56.190Z,12.50
2022-12-25T13:38:42.749Z,12.50
2022-12-25T13:42:28.355Z,12.50
2022-12-25T13:46:15.064Z,12.50
2022-12-25T13:49:59.676Z,12.40
2022-12-25T13:53:41.426Z,12.30
2022-12-25T13:57:29.119Z,12.20
2022-12-25T14:01:15.246Z,12.10
2022-12-25T14:04:57.173Z,12.00
2022-12-25T14:08:39.084Z,11.90
2022-12-25T14:12:21.828Z,11.80
2022-12-25T14:16:04.167Z,11.70
2022-12-25T14:19:45.859Z,11.70
2022-12-25T14:23:47.148Z,11.60
2022-12-25T14:27:32.263Z,11.60
2022-12-25T14:31:14.049Z,11.60
2022-12-25T14:34:59.926Z,11.60
2022-12-25T14:38:44.009Z,11.60
2022-12-25T14:42:29.423Z,11.60
2022-12-25T14:46:26.770Z,11.60
2022-12-25T14:50:24.452Z,11.60
2022-12-25T14:54:15.919Z,11.60
2022-12-25T14:58:10.122Z,11.60
2022-12-25T15:01:58.920Z,11.60
2022-12-25T15:05:40.830Z,11.60
2022-12-25T15:09:22.644Z,11.60
2022-12-25T15:13:04.777Z,11.50
2022-12-25T15:16:50.344Z,11.50
2022-12-25T15:20:34.987Z,11.50
2022-12-25T15:24:17.240Z,11.50
2022-12-25T15:27:59.314Z,11.40
2022-12-25T15:31:42.058Z,11.40
2022-12-25T15:35:24.638Z,11.40
2022-12-25T15:39:06.352Z,11.30
2022-12-25T15:42:48.934Z,11.30
2022-12-25T15:46:31.229Z,11.30
2022-12-25T15:50:12.963Z,11.30
2022-12-25T15:53:54.802Z,11.30
2022-12-25T15:57:38.977Z,11.30
2022-12-25T16:01:21.533Z,11.30
2022-12-25T16:05:10.171Z,11.20
2022-12-25T16:08:52.281Z,11.20
2022-12-25T16:12:33.987Z,11.20
2022-12-25T16:16:15.673Z,11.20
2022-12-25T16:19:57.440Z,11.10
2022-12-25T16:23:39.166Z,11.10
2022-12-25T16:27:22.194Z,11.00
2022-12-25T16:31:04.170Z,10.90
2022-12-25T16:34:48.178Z,10.90
2022-12-25T16:38:31.586Z,10.90
2022-12-25T16:42:13.210Z,10.90
2022-12-25T16:45:57.146Z,10.80
2022-12-25T16:49:39.223Z,10.80
2022-12-25T16:53:20.983Z,10.80
2022-12-25T16:57:02.696Z,10.70
2022-12-25T17:00:49.065Z,10.70
2022-12-25T17:04:31.275Z,10.70
2022-12-25T17:08:13.049Z,10.70
2022-12-25T17:11:54.746Z,10.70
2022-12-25T17:15:36.481Z,10.80
2022-12-25T17:19:20.526Z,10.80
2022-12-25T17:23:02.241Z,10.80
2022-12-25T17:26:44.678Z,10.90
2022-12-25T17:30:26.452Z,10.90
2022-12-25T17:34:10.399Z,10.90
2022-12-25T17:37:52.117Z,10.90
2022-12-25T17:41:34.177Z,11.00
2022-12-25T17:45:15.992Z,10.90
2022-12-25T17:48:59.591Z,11.00
2022-12-25T17:52:41.296Z,11.00
2022-12-25T17:56:24.040Z,11.00
2022-12-25T18:00:06.404Z,11.10
2022-12-25T18:03:48.546Z,11.10
2022-12-25T18:07:30.279Z,11.10
2022-12-25T18:11:18.487Z,11.20
2022-12-25T18:15:00.612Z,11.20
2022-12-25T18:18:49.520Z,11.20
2022-12-25T18:22:37.062Z,11.20
2022-12-25T18:26:20.009Z,11.20
2022-12-25T18:30:01.996Z,11.20
2022-12-25T18:33:44.814Z,11.10
2022-12-25T18:37:33.160Z,11.20
2022-12-25T18:41:20.244Z,11.20
2022-12-25T18:45:01.971Z,11.20
2022-12-25T18:48:44.449Z,11.20
2022-12-25T18:52:47.536Z,11.10
2022-12-25T18:56:28.147Z,11.10
2022-12-25T19:00:10.394Z,11.10
2022-12-25T19:03:57.189Z,11.00
2022-12-25T19:08:01.671Z,11.00
2022-12-25T19:11:47.103Z,10.90
2022-12-25T19:15:28.878Z,10.80
2022-12-25T19:19:10.704Z,10.80
2022-12-25T19:22:52.489Z,10.60
2022-12-25T19:26:35.950Z,10.60
2022-12-25T19:30:18.341Z,10.50
2022-12-25T19:34:00.161Z,10.50
2022-12-25T19:37:41.899Z,10.40
2022-12-25T19:41:23.736Z,10.40
2022-12-25T19:45:06.226Z,10.40
2022-12-25T19:48:48.305Z,10.30
2022-12-25T19:52:30.020Z,10.30
2022-12-25T19:56:11.764Z,10.40
2022-12-25T19:59:53.473Z,10.30
2022-12-25T20:03:40.174Z,10.30
2022-12-25T20:07:27.702Z,10.20
2022-12-25T20:11:09.437Z,10.20
2022-12-25T20:14:51.162Z,10.20
2022-12-25T20:18:33.132Z,10.20
2022-12-25T20:22:14.924Z,10.10
2022-12-25T20:26:00.986Z,10.20
2022-12-25T20:29:42.867Z,10.10
2022-12-25T20:33:24.841Z,10.10
2022-12-25T20:37:06.596Z,10.00
2022-12-25T20:41:25.194Z,10.00
2022-12-25T20:44:50.049Z,10.00
2022-12-25T20:48:31.907Z,10.00
2022-12-25T20:52:13.657Z,10.00
2022-12-25T20:55:55.348Z,9.90
2022-12-25T20:59:37.971Z,9.90
2022-12-25T21:03:19.863Z,9.90
2022-12-25T21:07:02.553Z,9.90
2022-12-25T21:10:46.213Z,9.80
2022-12-25T21:14:29.558Z,9.80
2022-12-25T21:18:11.375Z,9.80
2022-12-25T21:21:53.074Z,9.80
2022-12-25T21:25:34.830Z,9.80
2022-12-25T21:29:17.732Z,9.70
2022-12-25T21:33:18.109Z,9.70
2022-12-25T21:36:59.847Z,9.70
2022-12-25T21:40:41.636Z,9.70
2022-12-25T21:44:23.338Z,9.60
2022-12-25T21:48:05.325Z,9.70
2022-12-25T21:52:05.716Z,9.70
2022-12-25T21:55:58.746Z,9.60
2022-12-25T21:59:40.451Z,9.70
2022-12-25T22:03:23.999Z,9.70
2022-12-25T22:07:18.224Z,9.70
2022-12-25T22:11:03.989Z,9.60
2022-12-25T22:14:55.400Z,9.70
2022-12-25T22:18:56.407Z,9.70
2022-12-25T22:22:38.744Z,9.70
2022-12-25T22:26:21.126Z,9.70
2022-12-25T22:30:04.231Z,9.70
2022-12-25T22:33:45.943Z,9.80
2022-12-25T22:37:27.668Z,9.80
2022-12-25T22:41:09.412Z,9.80
2022-12-25T22:44:51.197Z,9.80
2022-12-25T22:48:33.446Z,9.80
2022-12-25T22:52:15.235Z,9.80
2022-12-25T22:55:56.940Z,9.80
2022-12-25T22:59:38.739Z,9.80
2022-12-25T23:03:20.735Z,9.80
2022-12-25T23:07:02.775Z,9.80
2022-12-25T23:10:44.568Z,9.80
2022-12-25T23:14:40.120Z,9.80
2022-12-25T23:18:40.463Z,9.80
2022-12-25T23:22:41.363Z,9.80
2022-12-25T23:26:24.337Z,9.80
2022-12-25T23:30:09.263Z,9.80
2022-12-25T23:33:51.244Z,9.80
2022-12-25T23:37:33.113Z,9.80
2022-12-25T23:41:14.887Z,9.80
2022-12-25T23:44:56.679Z,9.80
2022-12-25T23:48:38.419Z,9.80
2022-12-25T23:52:21.014Z,9.80
2022-12-25T23:56:03.096Z,9.80
2022-12-25T23:59:45.502Z,9.80
